createdAt,value
2019-03-25T00:02:53.540Z,1.63
2019-03-25T00:07:59.857Z,2.37
2019-03-25T00:13:05.796Z,2.50
2019-03-25T00:18:11.530Z,2.30
2019-03-25T00:23:17.254Z,1.90
2019-03-25T00:28:23.005Z,1.93
2019-03-25T00:33:28.646Z,1.67
2019-03-25T00:38:34.418Z,2.00
2019-03-25T00:43:40.175Z,1.93
2019-03-25T00:48:45.952Z,2.00
2019-03-25T00:53:51.722Z,1.70
2019-03-25T00:58:57.152Z,1.87
2019-03-25T01:04:02.993Z,1.73
2019-03-25T01:09:08.717Z,1.93
2019-03-25T01:14:14.089Z,2.30
2019-03-25T01:19:19.955Z,1.80
2019-03-25T01:24:25.865Z,2.30
2019-03-25T01:29:31.993Z,1.60
2019-03-25T01:34:37.875Z,2.10
2019-03-25T01:39:44.041Z,2.20
2019-03-25T01:44:50.074Z,2.33
2019-03-25T01:49:55.481Z,2.70
2019-03-25T01:55:00.801Z,2.40
2019-03-25T02:00:06.598Z,2.40
2019-03-25T02:05:12.378Z,2.70
2019-03-25T02:10:18.273Z,2.27
2019-03-25T02:15:23.811Z,2.70
2019-03-25T02:20:29.564Z,2.63
2019-03-25T02:25:35.335Z,2.73
2019-03-25T02:30:41.128Z,2.30
2019-03-25T02:35:46.649Z,2.87
2019-03-25T02:40:52.438Z,2.57
2019-03-25T02:45:57.938Z,2.73
2019-03-25T02:51:03.563Z,2.60
2019-03-25T02:56:08.894Z,2.50
2019-03-25T03:01:14.315Z,2.47
2019-03-25T03:06:19.648Z,2.07
2019-03-25T03:11:25.087Z,2.73
2019-03-25T03:16:30.444Z,2.87
2019-03-25T03:21:36.181Z,2.63
2019-03-25T03:26:41.621Z,2.57
2019-03-25T03:31:47.103Z,2.80
2019-03-25T03:36:53.119Z,2.33
2019-03-25T03:41:59.090Z,3.03
2019-03-25T03:47:04.577Z,2.77
2019-03-25T03:52:10.370Z,2.77
2019-03-25T03:57:16.637Z,3.27
2019-03-25T04:02:22.146Z,2.93
2019-03-25T04:07:27.936Z,2.90
2019-03-25T04:12:33.441Z,2.60
2019-03-25T04:17:39.470Z,3.37
2019-03-25T04:22:45.242Z,3.03
2019-03-25T04:27:51.725Z,2.93
2019-03-25T04:32:57.517Z,2.80
2019-03-25T04:38:03.022Z,3.13
2019-03-25T04:43:09.242Z,3.23
2019-03-25T04:48:15.105Z,3.10
2019-03-25T04:53:20.872Z,2.90
2019-03-25T04:58:27.254Z,3.30
2019-03-25T05:03:32.676Z,2.73
2019-03-25T05:08:38.285Z,3.40
2019-03-25T05:13:43.950Z,2.70
2019-03-25T05:18:50.225Z,2.50
2019-03-25T05:23:55.671Z,2.50
2019-03-25T05:29:01.641Z,2.23
2019-03-25T05:34:07.313Z,2.80
2019-03-25T05:39:13.296Z,2.77
2019-03-25T05:44:18.551Z,2.77
2019-03-25T05:49:24.318Z,2.63
2019-03-25T05:54:30.101Z,2.70
2019-03-25T05:59:36.028Z,2.93
2019-03-25T06:04:41.738Z,2.80
2019-03-25T06:09:47.057Z,2.67
2019-03-25T06:14:53.015Z,3.53
2019-03-25T06:19:58.944Z,2.73
2019-03-25T06:25:05.014Z,3.00
2019-03-25T06:30:11.553Z,2.57
2019-03-25T06:35:17.379Z,2.77
2019-03-25T06:40:23.110Z,3.13
2019-03-25T06:45:28.590Z,2.90
2019-03-25T06:50:34.987Z,3.30
2019-03-25T06:55:40.315Z,2.93
2019-03-25T07:00:46.221Z,2.87
2019-03-25T07:05:52.672Z,2.60
2019-03-25T07:10:58.208Z,2.50
2019-03-25T07:16:04.115Z,2.43
2019-03-25T07:21:10.209Z,2.17
2019-03-25T07:26:15.989Z,2.07
2019-03-25T07:31:21.537Z,2.03
2019-03-25T07:36:27.214Z,2.23
2019-03-25T07:41:32.550Z,2.40
2019-03-25T07:46:38.228Z,2.00
2019-03-25T07:51:43.648Z,2.30
2019-03-25T07:56:49.034Z,1.90
2019-03-25T08:01:54.857Z,1.87
2019-03-25T08:07:00.436Z,2.00
2019-03-25T08:12:06.505Z,2.17
2019-03-25T08:17:12.749Z,1.43
2019-03-25T08:22:18.417Z,1.30
2019-03-25T08:27:24.102Z,1.80
2019-03-25T08:32:30.309Z,1.73
2019-03-25T08:37:36.790Z,2.00
2019-03-25T08:42:42.740Z,1.07
2019-03-25T08:47:48.574Z,1.70
2019-03-25T08:52:54.254Z,1.57
2019-03-25T08:58:11.450Z,1.83
2019-03-25T09:03:08.036Z,1.97
2019-03-25T09:08:13.685Z,1.60
2019-03-25T09:13:19.133Z,1.50
2019-03-25T09:18:25.041Z,1.70
2019-03-25T09:23:30.845Z,1.30
2019-03-25T09:28:37.036Z,1.50
2019-03-25T09:33:43.009Z,1.27
2019-03-25T09:38:48.828Z,1.40
2019-03-25T09:43:54.596Z,1.13
2019-03-25T09:49:03.477Z,1.60
2019-03-25T09:54:08.913Z,1.23
2019-03-25T09:59:14.626Z,1.27
2019-03-25T10:04:20.262Z,1.10
2019-03-25T10:09:25.795Z,0.70
2019-03-25T10:14:31.234Z,1.00
2019-03-25T10:19:37.074Z,1.23
2019-03-25T10:24:42.436Z,1.37
2019-03-25T10:29:48.190Z,1.37
2019-03-25T10:34:53.906Z,0.97
2019-03-25T10:39:59.605Z,1.13
2019-03-25T10:45:05.462Z,1.13
2019-03-25T10:50:12.141Z,1.87
2019-03-25T10:55:17.574Z,1.70
2019-03-25T11:00:24.047Z,1.40
2019-03-25T11:05:30.022Z,1.50
2019-03-25T11:10:35.853Z,1.47
2019-03-25T11:15:41.585Z,1.50
2019-03-25T11:20:47.203Z,1.90
2019-03-25T11:25:52.988Z,1.80
2019-03-25T11:31:01.901Z,1.77
2019-03-25T11:36:07.833Z,1.97
2019-03-25T11:41:13.346Z,2.20
2019-03-25T11:46:18.822Z,1.80
2019-03-25T11:51:24.601Z,1.50
2019-03-25T11:56:30.401Z,1.60
2019-03-25T12:01:35.817Z,2.03
2019-03-25T12:06:41.401Z,1.50
2019-03-25T12:11:47.616Z,1.80
2019-03-25T12:16:53.344Z,1.40
2019-03-25T12:21:59.125Z,1.63
2019-03-25T12:27:04.566Z,1.63
2019-03-25T12:32:10.542Z,1.60
2019-03-25T12:37:17.106Z,1.63
2019-03-25T12:42:22.701Z,1.57
2019-03-25T12:47:28.149Z,1.23
2019-03-25T12:52:33.848Z,1.17
2019-03-25T12:57:39.468Z,0.60
2019-03-25T13:02:45.022Z,0.70
2019-03-25T13:07:50.572Z,1.10
2019-03-25T13:12:56.001Z,0.97
2019-03-25T13:18:01.786Z,1.07
2019-03-25T13:23:07.832Z,1.17
2019-03-25T13:28:13.254Z,1.37
2019-03-25T13:33:18.733Z,0.93
2019-03-25T13:38:24.345Z,1.10
2019-03-25T13:43:29.894Z,1.30
2019-03-25T13:48:35.464Z,1.37
2019-03-25T13:53:41.179Z,1.33
2019-03-25T13:58:46.673Z,1.50
2019-03-25T14:03:52.380Z,1.20
2019-03-25T14:08:58.136Z,0.90
2019-03-25T14:14:03.649Z,0.87
2019-03-25T14:19:09.080Z,1.10
2019-03-25T14:24:14.509Z,1.27
2019-03-25T14:29:19.896Z,1.20
2019-03-25T14:34:26.079Z,1.70
2019-03-25T14:39:32.166Z,1.40
2019-03-25T14:44:37.849Z,0.97
2019-03-25T14:49:43.384Z,1.33
2019-03-25T14:54:48.767Z,1.57
2019-03-25T14:59:54.184Z,1.27
2019-03-25T15:04:59.868Z,1.90
2019-03-25T15:10:06.111Z,1.70
2019-03-25T15:15:12.558Z,2.00
2019-03-25T15:20:18.084Z,1.63
2019-03-25T15:25:23.729Z,1.93
2019-03-25T15:30:35.987Z,1.33
2019-03-25T15:35:37.084Z,2.83
2019-03-25T15:40:42.510Z,1.60
2019-03-25T15:45:48.886Z,1.00
2019-03-25T15:50:54.497Z,1.17
2019-03-25T15:56:00.176Z,1.50
2019-03-25T16:01:05.861Z,1.23
2019-03-25T16:06:12.366Z,1.43
2019-03-25T16:11:18.187Z,2.50
2019-03-25T16:16:24.281Z,3.53
2019-03-25T16:21:30.273Z,1.73
2019-03-25T16:26:35.991Z,2.23
2019-03-25T16:31:41.938Z,2.00
2019-03-25T16:36:47.746Z,2.03
2019-03-25T16:41:53.373Z,1.90
2019-03-25T16:46:59.480Z,2.00
2019-03-25T16:52:05.161Z,1.70
2019-03-25T16:57:10.810Z,2.50
2019-03-25T17:02:16.273Z,2.00
2019-03-25T17:07:21.697Z,2.03
2019-03-25T17:12:27.133Z,2.67
2019-03-25T17:17:32.644Z,2.33
2019-03-25T17:22:38.178Z,2.20
2019-03-25T17:27:43.702Z,1.50
2019-03-25T17:32:49.055Z,1.87
2019-03-25T17:37:54.489Z,1.90
2019-03-25T17:43:00.390Z,1.37
2019-03-25T17:48:06.070Z,1.70
2019-03-25T17:53:11.751Z,2.80
2019-03-25T17:58:17.191Z,2.30
2019-03-25T18:03:22.942Z,1.87
2019-03-25T18:08:28.660Z,2.20
2019-03-25T18:13:34.178Z,3.30
2019-03-25T18:18:40.251Z,1.93
2019-03-25T18:23:46.217Z,1.80
2019-03-25T18:28:51.694Z,2.10
2019-03-25T18:33:57.201Z,3.00
2019-03-25T18:39:03.342Z,2.23
2019-03-25T18:44:09.053Z,2.30
2019-03-25T18:49:15.000Z,1.57
2019-03-25T18:54:20.820Z,2.50
2019-03-25T18:59:26.403Z,2.50
2019-03-25T19:04:32.463Z,2.37
2019-03-25T19:09:38.446Z,2.67
2019-03-25T19:14:44.191Z,2.60
2019-03-25T19:19:49.617Z,2.93
2019-03-25T19:24:55.740Z,2.23
2019-03-25T19:30:01.605Z,2.00
2019-03-25T19:35:07.389Z,3.10
2019-03-25T19:40:12.975Z,2.77
2019-03-25T19:45:18.992Z,3.60
2019-03-25T19:50:24.842Z,2.90
2019-03-25T19:55:30.397Z,1.63
2019-03-25T20:00:37.780Z,1.37
2019-03-25T20:05:43.480Z,1.73
2019-03-25T20:10:49.084Z,1.10
2019-03-25T20:15:54.932Z,1.70
2019-03-25T20:21:00.455Z,4.17
2019-03-25T20:26:07.248Z,3.27
2019-03-25T20:31:13.072Z,3.67
2019-03-25T20:36:19.225Z,5.17
2019-03-25T20:41:25.247Z,4.63
2019-03-25T20:46:30.945Z,3.03
2019-03-25T20:51:36.640Z,5.97
2019-03-25T20:56:43.461Z,3.33
2019-03-25T21:01:49.258Z,3.63
2019-03-25T21:06:54.737Z,1.60
2019-03-25T21:12:03.427Z,3.10
2019-03-25T21:17:09.025Z,2.10
2019-03-25T21:22:14.864Z,1.60
2019-03-25T21:27:20.384Z,2.80
2019-03-25T21:32:26.232Z,1.87
2019-03-25T21:37:32.179Z,2.17
2019-03-25T21:42:38.208Z,6.20
2019-03-25T21:47:43.939Z,10.83
2019-03-25T21:52:50.125Z,6.00
2019-03-25T21:57:55.976Z,4.30
2019-03-25T22:03:11.383Z,5.00
2019-03-25T22:08:08.999Z,3.57
2019-03-25T22:13:15.408Z,2.03
2019-03-25T22:18:20.856Z,4.33
2019-03-25T22:23:26.392Z,5.70
2019-03-25T22:28:32.324Z,6.30
2019-03-25T22:33:38.521Z,3.83
2019-03-25T22:38:44.596Z,3.03
2019-03-25T22:43:50.006Z,6.17
2019-03-25T22:48:55.502Z,5.70
2019-03-25T22:54:01.391Z,2.80
2019-03-25T22:59:07.121Z,4.60
2019-03-25T23:04:13.323Z,2.10
2019-03-25T23:09:17.920Z,1.60
2019-03-25T23:14:24.329Z,1.20
2019-03-25T23:19:30.098Z,1.50
2019-03-25T23:24:35.792Z,1.10
2019-03-25T23:29:41.561Z,1.10
2019-03-25T23:34:47.658Z,1.20
2019-03-25T23:39:53.522Z,1.27
2019-03-25T23:45:05.804Z,1.10
2019-03-25T23:50:11.619Z,1.50
2019-03-25T23:55:17.041Z,1.47
